Time;durP1;ratioP1;P1;durP2;ratioP2;P2;SDS_P1;SDS_P2;PMS_P1;PMS_P2;Temp;Humidity;BMP_temperature;BMP_pressure;BME280_temperature;BME280_humidity;BME280_pressure;Samples;Min_cycle;Max_cycle;Signal;HPM_P1;HPM_P2
2022/02/05 00:05:43;;;;;;;2.33;1.10;;;10.00;1.00;;;;;;5035825;28;20099;-74
2022/02/05 00:11:19;;;;;;;2.17;1.52;;;10.00;1.00;;;;;;5035538;28;20038;-74
2022/02/05 00:41:17;;;;;;;6.78;2.33;;;9.60;1.00;;;;;;5035010;28;20071;-75
2022/02/05 00:43:52;;;;;;;3.95;2.15;;;9.60;1.00;;;;;;5034815;28;20076;-74
2022/02/05 00:46:18;;;;;;;3.28;1.42;;;9.60;1.00;;;;;;5034988;28;20396;-74
2022/02/05 00:48:44;;;;;;;5.90;2.75;;;9.60;1.00;;;;;;5035154;28;20043;-74
2022/02/05 00:51:18;;;;;;;4.28;2.20;;;9.60;1.00;;;;;;5035390;28;20542;-75
2022/02/05 00:53:48;;;;;;;7.22;2.55;;;9.50;1.00;;;;;;5035140;28;20573;-75
2022/02/05 00:56:21;;;;;;;3.25;2.03;;;9.50;1.00;;;;;;5035292;28;20045;-74
2022/02/05 00:58:47;;;;;;;5.25;2.00;;;9.50;1.00;;;;;;5035416;28;20044;-74
2022/02/05 01:01:13;;;;;;;3.72;1.60;;;9.50;1.00;;;;;;5034948;28;20381;-75
2022/02/05 01:03:39;;;;;;;6.38;2.85;;;9.50;1.00;;;;;;5034651;28;20033;-75
2022/02/05 01:06:07;;;;;;;4.25;2.58;;;9.50;1.00;;;;;;5035067;28;20044;-75
2022/02/05 01:08:35;;;;;;;6.65;1.58;;;9.30;1.00;;;;;;5035207;28;20064;-75
2022/02/05 01:11:01;;;;;;;5.07;2.90;;;9.50;1.00;;;;;;5034709;28;20061;-75
2022/02/05 01:13:29;;;;;;;5.95;2.55;;;9.50;1.00;;;;;;5034624;28;20033;-75
2022/02/05 01:16:06;;;;;;;3.55;1.38;;;9.50;1.00;;;;;;5034929;28;20076;-75
2022/02/05 01:18:35;;;;;;;2.72;1.23;;;9.50;1.00;;;;;;5034469;28;20576;-74
2022/02/05 01:23:42;;;;;;;6.72;3.38;;;9.30;1.00;;;;;;5034953;28;20518;-74
2022/02/05 01:26:15;;;;;;;7.05;2.03;;;9.30;1.00;;;;;;5035389;28;20091;-75
2022/02/05 01:28:43;;;;;;;6.82;2.50;;;9.30;1.00;;;;;;5034277;28;20048;-75
2022/02/05 01:31:09;;;;;;;4.45;1.70;;;9.30;1.00;;;;;;5034108;28;20025;-74
2022/02/05 01:33:52;;;;;;;3.13;1.65;;;9.30;1.00;;;;;;5034686;28;20040;-74
2022/02/05 01:39:32;;;;;;;7.47;2.97;;;9.20;1.00;;;;;;5035338;28;20185;-75
2022/02/05 01:55:29;;;;;;;8.60;3.75;;;9.10;1.00;;;;;;5034205;28;20409;-74
2022/02/05 02:07:00;;;;;;;6.13;2.50;;;8.90;1.00;;;;;;5034212;28;20067;-74
2022/02/05 02:12:02;;;;;;;8.52;2.10;;;9.00;1.00;;;;;;5033973;28;20095;-74
2022/02/05 02:17:52;;;;;;;6.10;3.13;;;9.00;1.00;;;;;;5033943;28;20034;-75
2022/02/05 02:23:06;;;;;;;4.70;2.70;;;9.00;1.00;;;;;;5034061;28;20036;-75
2022/02/05 02:26:23;;;;;;;6.35;2.20;;;9.00;1.00;;;;;;5033829;28;20041;-75
2022/02/05 02:28:31;;;;;;;4.72;2.50;;;9.00;1.00;;;;;;5023223;28;20045;-75
2022/02/05 02:31:05;;;;;;;6.07;2.72;;;9.10;1.00;;;;;;5034209;28;20038;-75
2022/02/05 02:33:35;;;;;;;5.15;3.03;;;9.10;1.00;;;;;;5033333;28;20473;-75
2022/02/05 02:36:03;;;;;;;6.72;2.78;;;9.10;1.00;;;;;;5034178;28;20084;-75
2022/02/05 02:38:44;;;;;;;5.80;3.65;;;9.10;1.00;;;;;;5034141;28;20083;-75
2022/02/05 02:41:19;;;;;;;4.80;2.63;;;9.20;1.00;;;;;;5034235;28;20037;-74
2022/02/05 02:43:45;;;;;;;3.35;2.78;;;9.10;1.00;;;;;;5035175;28;20132;-75
2022/02/05 02:46:11;;;;;;;4.05;2.42;;;9.10;1.00;;;;;;5037591;28;20120;-75
2022/02/05 02:48:37;;;;;;;4.60;3.10;;;9.10;1.00;;;;;;5037502;28;20048;-74
2022/02/05 02:56:49;;;;;;;2.20;2.00;;;9.10;1.00;;;;;;5036967;28;20087;-74
2022/02/05 02:59:27;;;;;;;6.13;3.28;;;9.10;1.00;;;;;;5037180;28;20044;-74
2022/02/05 03:01:59;;;;;;;3.63;2.70;;;9.10;1.00;;;;;;5037085;28;20358;-74
2022/02/05 03:04:25;;;;;;;6.13;3.13;;;9.20;1.00;;;;;;5036876;28;20124;-74
2022/02/05 03:06:51;;;;;;;5.95;1.90;;;9.10;1.00;;;;;;5037317;28;20120;-75
2022/02/05 03:09:18;;;;;;;7.68;1.63;;;9.10;1.00;;;;;;5037304;28;20048;-75
2022/02/05 03:11:44;;;;;;;3.03;1.80;;;9.10;1.00;;;;;;5037126;28;20041;-74
2022/02/05 03:14:10;;;;;;;3.63;2.28;;;9.10;1.00;;;;;;5037222;28;20045;-75
2022/02/05 03:16:37;;;;;;;3.83;1.83;;;9.10;1.00;;;;;;5036853;28;20045;-75
2022/02/05 03:21:32;;;;;;;3.25;1.60;;;9.10;1.00;;;;;;5037073;28;20087;-74
2022/02/05 03:23:57;;;;;;;5.00;1.60;;;9.10;1.00;;;;;;5037059;28;20040;-75
2022/02/05 03:26:23;;;;;;;3.55;1.60;;;9.00;1.00;;;;;;5037502;28;20044;-75
2022/02/05 03:28:49;;;;;;;4.15;1.55;;;9.00;1.00;;;;;;5036645;28;20550;-75
2022/02/05 03:31:15;;;;;;;2.03;1.10;;;9.00;1.00;;;;;;5037357;28;20035;-74
2022/02/05 03:33:41;;;;;;;4.22;1.10;;;9.00;1.00;;;;;;5036593;28;20064;-74
2022/02/05 03:36:07;;;;;;;1.50;0.80;;;9.00;1.00;;;;;;5036841;28;20041;-74
2022/02/05 03:38:33;;;;;;;3.17;1.02;;;9.10;1.00;;;;;;5036699;28;20128;-75
2022/02/05 03:40:58;;;;;;;4.03;1.52;;;9.00;1.00;;;;;;5036734;28;20112;-74
2022/02/05 03:43:24;;;;;;;3.67;1.85;;;9.00;1.00;;;;;;5036357;28;20049;-74
2022/02/05 03:45:50;;;;;;;3.47;0.95;;;8.90;1.00;;;;;;5036197;28;20456;-74
2022/02/05 03:48:16;;;;;;;1.25;0.75;;;9.00;1.00;;;;;;5036309;28;20496;-74
2022/02/05 03:50:42;;;;;;;3.10;0.90;;;9.00;1.00;;;;;;5036097;28;20057;-74
2022/02/05 03:53:08;;;;;;;2.58;0.98;;;9.00;1.00;;;;;;5036163;28;20043;-75
2022/02/05 03:55:35;;;;;;;1.67;0.90;;;9.00;1.00;;;;;;5035525;28;20496;-75
2022/02/05 03:58:01;;;;;;;1.30;0.90;;;8.90;1.00;;;;;;5035925;28;20124;-74
2022/02/05 04:00:27;;;;;;;1.65;0.98;;;9.00;1.00;;;;;;5035448;28;20392;-75
2022/02/05 04:02:53;;;;;;;2.72;0.85;;;8.90;1.00;;;;;;5035654;28;20082;-74
2022/02/05 04:05:18;;;;;;;2.13;0.80;;;8.80;1.00;;;;;;5035706;28;20094;-74
2022/02/05 04:07:49;;;;;;;2.63;0.93;;;8.80;1.00;;;;;;5035844;28;20079;-74
2022/02/05 04:10:21;;;;;;;4.88;1.60;;;8.80;1.00;;;;;;5035073;28;20037;-74
2022/02/05 04:18:16;;;;;;;3.10;1.10;;;8.60;1.00;;;;;;5035163;28;20091;-74
2022/02/05 04:20:41;;;;;;;5.80;0.95;;;8.70;1.00;;;;;;5035589;28;20411;-74
2022/02/05 04:23:08;;;;;;;3.33;1.30;;;8.80;1.00;;;;;;5035324;28;20040;-74
2022/02/05 04:25:34;;;;;;;1.77;1.02;;;8.60;1.00;;;;;;5035127;28;20034;-75
2022/02/05 04:28:00;;;;;;;6.60;1.30;;;8.60;1.00;;;;;;5035457;28;20037;-74
2022/02/05 04:30:26;;;;;;;3.75;1.58;;;8.60;1.00;;;;;;5035280;28;20032;-74
2022/02/05 04:32:52;;;;;;;2.63;1.45;;;8.50;1.00;;;;;;5035455;28;20044;-74
2022/02/05 04:35:18;;;;;;;3.25;1.00;;;8.50;1.00;;;;;;5035246;28;20113;-74
2022/02/05 04:37:45;;;;;;;3.40;1.30;;;8.50;1.00;;;;;;5035560;28;20059;-74
2022/02/05 04:40:25;;;;;;;5.95;1.90;;;8.40;1.00;;;;;;5034629;28;20029;-74
2022/02/05 04:56:27;;;;;;;4.38;2.33;;;8.40;1.00;;;;;;5035065;28;20164;-75
2022/02/05 05:01:55;;;;;;;;;;;8.40;18.60;;;;;;5035454;28;20036;-74
2022/02/05 05:04:36;;;;;;;2.08;1.20;;;8.50;6.70;;;;;;5035086;28;19995;-74
2022/02/05 05:12:49;;;;;;;2.70;0.93;;;8.40;8.20;;;;;;5026015;28;20033;-74
2022/02/05 05:15:32;;;;;;;2.10;0.85;;;8.50;1.00;;;;;;5034627;28;20033;-74
2022/02/05 05:20:56;;;;;;;3.00;0.93;;;8.60;1.00;;;;;;5034345;28;20103;-74
2022/02/05 05:23:22;;;;;;;1.77;0.57;;;8.60;1.00;;;;;;5035163;28;20052;-74
2022/02/05 05:25:48;;;;;;;4.78;1.80;;;8.60;1.00;;;;;;5034609;28;20041;-74
2022/02/05 05:28:14;;;;;;;5.10;1.33;;;8.70;1.00;;;;;;5034840;28;20033;-75
2022/02/05 05:30:40;;;;;;;3.15;1.33;;;8.70;1.00;;;;;;5034171;28;20144;-75
2022/02/05 05:33:10;;;;;;;6.53;2.53;;;8.70;1.00;;;;;;5034999;28;20072;-75
2022/02/05 05:35:36;;;;;;;6.95;2.35;;;8.70;1.00;;;;;;5034633;28;20033;-75
2022/02/05 05:38:03;;;;;;;3.55;1.85;;;8.70;1.00;;;;;;5034815;28;20041;-75
2022/02/05 05:40:30;;;;;;;3.45;1.98;;;8.70;1.00;;;;;;5035118;28;20038;-74
2022/02/05 05:43:03;;;;;;;3.90;1.50;;;8.80;1.00;;;;;;5034427;28;20034;-74
2022/02/05 05:45:50;;;;;;;3.85;2.10;;;8.80;1.00;;;;;;5033729;28;20025;-74
2022/02/05 05:48:26;;;;;;;2.03;1.50;;;8.70;1.00;;;;;;5034076;28;20542;-74
2022/02/05 05:51:01;;;;;;;1.73;1.10;;;8.70;1.00;;;;;;5034685;28;20065;-75
2022/02/05 05:53:28;;;;;;;4.10;1.80;;;8.70;1.00;;;;;;5034391;28;20049;-75
2022/02/05 05:55:56;;;;;;;2.80;1.77;;;8.70;1.00;;;;;;5034441;28;20033;-74
2022/02/05 05:58:22;;;;;;;2.33;0.88;;;8.80;1.00;;;;;;5033933;28;20037;-75
2022/02/05 06:00:49;;;;;;;1.73;0.80;;;8.70;1.00;;;;;;5033688;28;20034;-74
2022/02/05 06:03:15;;;;;;;2.75;1.00;;;8.70;1.00;;;;;;5034172;28;20041;-75
2022/02/05 06:05:41;;;;;;;2.40;1.30;;;8.70;1.00;;;;;;5033908;28;20043;-75
2022/02/05 06:08:07;;;;;;;2.58;1.30;;;8.60;1.00;;;;;;5033977;28;20037;-75
2022/02/05 06:10:33;;;;;;;1.92;1.20;;;8.60;1.00;;;;;;5033812;28;20025;-74
2022/02/05 06:12:59;;;;;;;3.17;0.98;;;8.60;1.00;;;;;;5033798;28;20036;-74
2022/02/05 06:15:25;;;;;;;3.00;0.80;;;8.60;1.00;;;;;;5034155;28;20034;-75
2022/02/05 06:17:52;;;;;;;2.47;0.70;;;8.60;1.00;;;;;;5035582;28;20044;-74
2022/02/05 06:20:18;;;;;;;4.10;1.90;;;8.50;1.00;;;;;;5037158;28;20029;-75
2022/02/05 06:22:43;;;;;;;4.63;2.20;;;8.60;1.00;;;;;;5037726;28;20047;-75
2022/02/05 06:25:10;;;;;;;0.93;0.60;;;8.50;1.00;;;;;;5049857;28;20047;-74
2022/02/05 06:27:36;;;;;;;2.47;0.70;;;8.60;1.00;;;;;;5057378;28;20037;-74
2022/02/05 06:30:03;;;;;;;1.92;0.55;;;;;;;;;;5057627;28;20029;-75
2022/02/05 06:32:29;;;;;;;0.90;0.45;;;8.50;1.00;;;;;;5057511;28;20048;-74
2022/02/05 06:34:55;;;;;;;1.00;0.40;;;8.50;1.00;;;;;;5057414;28;20029;-74
2022/02/05 06:37:21;;;;;;;1.48;0.63;;;8.50;1.00;;;;;;5057404;28;20041;-75
2022/02/05 06:39:46;;;;;;;0.90;0.50;;;8.50;1.00;;;;;;5053203;28;20518;-74
2022/02/05 06:42:12;;;;;;;1.38;0.85;;;8.60;1.00;;;;;;5037463;28;20045;-75
2022/02/05 06:44:38;;;;;;;1.13;0.50;;;8.50;1.00;;;;;;5036752;28;20493;-75
2022/02/05 06:47:04;;;;;;;0.95;0.50;;;8.60;1.00;;;;;;5037000;28;20044;-75
2022/02/05 06:49:30;;;;;;;1.17;0.50;;;8.50;1.00;;;;;;5037114;28;20048;-75
2022/02/05 06:51:57;;;;;;;0.85;0.38;;;8.50;1.00;;;;;;5037415;28;20033;-75
2022/02/05 06:54:23;;;;;;;1.85;0.40;;;8.40;1.00;;;;;;5037118;28;20086;-75
2022/02/05 06:56:49;;;;;;;0.70;0.60;;;8.40;1.00;;;;;;5037092;28;20035;-75
2022/02/05 06:59:15;;;;;;;2.50;0.70;;;8.30;1.00;;;;;;5036595;28;20029;-72
2022/02/05 07:01:41;;;;;;;1.42;0.43;;;8.40;1.00;;;;;;5037163;28;20028;-72
2022/02/05 07:04:07;;;;;;;1.90;0.50;;;8.50;1.00;;;;;;5036771;28;20439;-75
2022/02/05 07:06:34;;;;;;;1.20;0.60;;;8.40;1.00;;;;;;5036955;28;20041;-74
2022/02/05 07:09:04;;;;;;;1.70;0.70;;;8.40;1.00;;;;;;5036765;28;20069;-73
2022/02/05 07:11:31;;;;;;;1.27;0.50;;;8.40;1.00;;;;;;5034993;28;20427;-73
2022/02/05 07:13:57;;;;;;;1.15;0.40;;;8.50;1.00;;;;;;5035736;28;20042;-74
2022/02/05 07:16:50;;;;;;;1.30;0.70;;;8.50;1.00;;;;;;5035499;28;20448;-74
2022/02/05 07:21:43;;;;;;;0.82;0.47;;;8.60;1.00;;;;;;5076761;28;20113;-74
2022/02/05 07:24:20;;;;;;;0.95;0.50;;;8.60;1.00;;;;;;5063086;28;20551;-74
2022/02/05 07:29:30;;;;;;;2.80;0.40;;;8.70;1.00;;;;;;5055371;28;20039;-74
2022/02/05 07:31:58;;;;;;;0.80;0.60;;;8.70;1.00;;;;;;5056181;28;20040;-74
2022/02/05 07:34:29;;;;;;;2.63;0.75;;;8.70;1.00;;;;;;5044585;28;20500;-74
2022/02/05 07:37:00;;;;;;;1.80;0.50;;;8.80;1.00;;;;;;5037574;28;20036;-74
2022/02/05 07:39:26;;;;;;;1.08;0.45;;;8.80;1.00;;;;;;5056035;28;20041;-74
2022/02/05 07:41:54;;;;;;;0.43;0.40;;;8.80;1.00;;;;;;5056253;28;20523;-74
2022/02/05 07:44:20;;;;;;;3.10;0.50;;;8.90;1.00;;;;;;5043785;28;20052;-74
2022/02/05 07:46:49;;;;;;;0.80;0.35;;;8.90;1.00;;;;;;5056398;28;20033;-74
2022/02/05 07:49:17;;;;;;;1.92;0.55;;;8.90;1.00;;;;;;5052830;28;20044;-74
2022/02/05 07:51:44;;;;;;;1.45;0.55;;;9.00;1.00;;;;;;5055413;28;20127;-74
2022/02/05 07:54:11;;;;;;;0.93;0.30;;;8.90;1.00;;;;;;5055328;28;20514;-74
2022/02/05 07:56:48;;;;;;;1.08;0.28;;;8.90;1.00;;;;;;5055733;28;20037;-74
2022/02/05 07:59:16;;;;;;;0.65;0.45;;;9.00;1.00;;;;;;5055848;28;20037;-74
2022/02/05 08:01:43;;;;;;;1.45;0.47;;;9.10;1.00;;;;;;5046644;28;20040;-74
2022/02/05 08:04:09;;;;;;;0.80;0.50;;;9.10;1.00;;;;;;5055690;28;20033;-74
2022/02/05 08:06:36;;;;;;;0.73;0.50;;;9.20;1.00;;;;;;5055907;28;20032;-74
2022/02/05 08:11:52;;;;;;;0.28;0.20;;;9.40;1.00;;;;;;5056013;28;20033;-74
2022/02/05 08:14:20;;;;;;;1.15;0.38;;;9.50;1.00;;;;;;5056084;28;20040;-74
2022/02/05 08:19:18;;;;;;;2.35;0.40;;;9.50;1.00;;;;;;5055139;28;20032;-74
2022/02/05 08:21:44;;;;;;;1.42;0.40;;;9.60;1.00;;;;;;5055897;28;20029;-74
2022/02/05 08:24:10;;;;;;;0.20;0.20;;;9.90;1.00;;;;;;5055634;28;20495;-74
2022/02/05 08:26:38;;;;;;;0.82;0.60;;;10.00;1.00;;;;;;5055580;28;20037;-74
2022/02/05 08:29:05;;;;;;;0.55;0.30;;;10.10;1.00;;;;;;5055389;28;20033;-74
2022/02/05 08:31:31;;;;;;;0.95;0.30;;;10.10;1.00;;;;;;5055569;28;20035;-74
2022/02/05 08:33:57;;;;;;;2.15;0.20;;;10.20;1.00;;;;;;5050533;28;20045;-74
2022/02/05 08:36:25;;;;;;;1.27;0.30;;;10.20;1.00;;;;;;5046271;28;20086;-74
2022/02/05 08:38:52;;;;;;;0.75;0.50;;;10.30;1.00;;;;;;5052918;28;20037;-74
2022/02/05 08:41:18;;;;;;;0.43;0.20;;;10.40;1.00;;;;;;5052260;28;20037;-74
2022/02/05 08:43:44;;;;;;;0.20;0.20;;;10.40;1.00;;;;;;5053990;28;20059;-74
2022/02/05 08:46:10;;;;;;;0.65;0.17;;;10.40;1.00;;;;;;5054642;28;20119;-74
2022/02/05 08:48:37;;;;;;;0.90;0.40;;;10.30;1.00;;;;;;5054967;28;20037;-74
2022/02/05 08:51:04;;;;;;;0.40;0.30;;;10.50;1.00;;;;;;5055135;28;20529;-74
2022/02/05 08:53:30;;;;;;;0.88;0.20;;;10.60;1.00;;;;;;5054670;28;20082;-74
2022/02/05 08:55:56;;;;;;;0.25;0.25;;;10.60;1.00;;;;;;5055000;28;20538;-74
2022/02/05 08:58:23;;;;;;;0.35;0.30;;;10.70;1.00;;;;;;5054985;28;20040;-74
2022/02/05 09:00:55;;;;;;;0.85;0.40;;;10.70;1.00;;;;;;5055156;28;20044;-74
2022/02/05 09:03:33;;;;;;;1.27;0.32;;;10.90;1.00;;;;;;5054433;28;20037;-74
2022/02/05 09:06:02;;;;;;;0.43;0.30;;;11.10;1.00;;;;;;5053831;28;20041;-74
2022/02/05 09:08:32;;;;;;;0.40;0.40;;;11.00;1.00;;;;;;5053517;28;20112;-74
2022/02/05 09:11:13;;;;;;;0.22;0.22;;;10.90;1.00;;;;;;5054568;28;20029;-74
2022/02/05 09:13:54;;;;;;;0.57;0.30;;;11.00;1.00;;;;;;5053460;28;20044;-74
2022/02/05 09:16:20;;;;;;;0.28;0.28;;;10.80;1.00;;;;;;5054347;28;20037;-74
2022/02/05 09:18:46;;;;;;;0.30;0.30;;;10.90;1.00;;;;;;5054154;28;20518;-74
2022/02/05 09:21:14;;;;;;;1.27;0.30;;;11.00;1.00;;;;;;5035334;28;20037;-74
2022/02/05 09:23:41;;;;;;;0.55;0.30;;;11.10;1.00;;;;;;5034845;28;20112;-74
2022/02/05 09:26:09;;;;;;;0.22;0.10;;;11.00;1.00;;;;;;5034526;28;20044;-74
2022/02/05 09:28:35;;;;;;;0.40;0.20;;;11.20;1.00;;;;;;5048853;28;20048;-74
2022/02/05 09:33:34;;;;;;;0.73;0.38;;;11.50;1.00;;;;;;5034143;28;20033;-74
2022/02/05 09:36:00;;;;;;;0.30;0.30;;;11.30;1.00;;;;;;5034462;28;20091;-74
2022/02/05 09:38:27;;;;;;;0.30;0.30;;;11.50;1.00;;;;;;5034275;28;20037;-74
2022/02/05 09:40:53;;;;;;;0.22;0.20;;;11.60;1.00;;;;;;5035033;28;20468;-74
2022/02/05 09:43:30;;;;;;;0.22;0.22;;;11.40;1.00;;;;;;5034330;28;20154;-74
2022/02/05 09:45:57;;;;;;;0.40;0.30;;;11.60;1.00;;;;;;5035302;28;20041;-74
2022/02/05 09:48:27;;;;;;;0.30;0.30;;;11.40;1.00;;;;;;5034339;28;20099;-74
2022/02/05 09:50:53;;;;;;;0.40;0.40;;;11.60;1.00;;;;;;5038661;28;20033;-74
2022/02/05 09:53:21;;;;;;;0.52;0.30;;;11.60;1.00;;;;;;5054445;28;20041;-74
2022/02/05 09:55:49;;;;;;;2.40;2.05;;;11.60;1.00;;;;;;5058600;28;20504;-74
2022/02/05 09:58:17;;;;;;;0.70;0.60;;;11.40;1.00;;;;;;5058309;28;20120;-74
2022/02/05 10:00:59;;;;;;;2.65;1.55;;;11.60;1.00;;;;;;5058514;28;20526;-74
2022/02/05 10:03:27;;;;;;;2.75;1.52;;;11.40;1.00;;;;;;5054492;28;20032;-74
2022/02/05 10:06:09;;;;;;;1.20;0.80;;;11.80;1.00;;;;;;5058178;28;20036;-74
2022/02/05 10:08:46;;;;;;;0.80;0.50;;;11.90;1.00;;;;;;5058130;28;20094;-74
2022/02/05 10:11:12;;;;;;;1.25;0.30;;;11.60;1.00;;;;;;5058718;28;20033;-75
2022/02/05 10:13:41;;;;;;;1.85;0.40;;;11.70;1.00;;;;;;5058522;28;20043;-75
2022/02/05 10:16:08;;;;;;;0.45;0.45;;;11.60;1.00;;;;;;5058015;28;20086;-75
2022/02/05 10:18:39;;;;;;;0.52;0.47;;;11.60;1.00;;;;;;5057753;28;20060;-74
2022/02/05 10:21:29;;;;;;;1.33;1.23;;;11.70;1.00;;;;;;5058321;28;20033;-74
2022/02/05 10:24:04;;;;;;;0.28;0.28;;;11.80;1.00;;;;;;5048955;28;20039;-74
2022/02/05 10:26:36;;;;;;;0.38;0.30;;;11.80;1.00;;;;;;5057211;28;20037;-74
2022/02/05 10:29:09;;;;;;;0.25;0.25;;;11.60;1.00;;;;;;5058136;28;20044;-74
2022/02/05 10:32:14;;;;;;;0.47;0.30;;;11.60;1.00;;;;;;5057987;28;20594;-74
2022/02/05 10:35:00;;;;;;;0.30;0.30;;;11.60;1.00;;;;;;5057968;28;20037;-74
2022/02/05 10:37:31;;;;;;;0.38;0.30;;;11.80;1.00;;;;;;5057466;28;20044;-75
2022/02/05 10:45:13;;;;;;;3.78;1.17;;;11.70;1.00;;;;;;5057373;28;20123;-74
2022/02/05 10:47:52;;;;;;;1.80;0.30;;;11.60;1.00;;;;;;5056997;28;20040;-74
2022/02/05 10:50:21;;;;;;;0.20;0.20;;;11.80;1.00;;;;;;5057297;28;20140;-74
2022/02/05 10:53:00;;;;;;;0.20;0.20;;;11.90;1.00;;;;;;5057011;28;20033;-74
2022/02/05 10:55:53;;;;;;;0.28;0.28;;;11.90;1.00;;;;;;5056855;28;20080;-74
2022/02/05 10:58:32;;;;;;;0.95;0.30;;;11.60;1.00;;;;;;5056620;28;20033;-74
2022/02/05 11:07:08;;;;;;;0.77;0.43;;;11.90;1.00;;;;;;5036558;28;20457;-74
2022/02/05 11:09:35;;;;;;;0.30;0.30;;;11.90;1.00;;;;;;5052688;28;20065;-74
2022/02/05 11:19:59;;;;;;;0.40;0.30;;;12.70;1.00;;;;;;5056967;28;20472;-74
2022/02/05 11:22:28;;;;;;;0.57;0.20;;;12.70;1.00;;;;;;5056711;28;20531;-74
2022/02/05 11:24:54;;;;;;;0.30;0.30;;;12.60;1.00;;;;;;5056706;28;20029;-74
2022/02/05 11:27:20;;;;;;;0.77;0.40;;;12.70;1.00;;;;;;5056286;28;20083;-74
2022/02/05 11:29:46;;;;;;;0.50;0.30;;;12.50;1.00;;;;;;5055708;28;20040;-74
2022/02/05 11:32:29;;;;;;;1.35;0.70;;;12.60;1.00;;;;;;5056329;28;20044;-74
2022/02/05 11:35:06;;;;;;;1.02;0.63;;;12.90;1.00;;;;;;5056129;28;20036;-74
2022/02/05 11:37:51;;;;;;;0.55;0.40;;;12.60;1.00;;;;;;5056164;28;20039;-74
2022/02/05 11:40:47;;;;;;;0.85;0.60;;;12.70;1.00;;;;;;5056778;28;20025;-75
2022/02/05 11:43:36;;;;;;;0.47;0.32;;;12.50;1.00;;;;;;5056032;28;20421;-75
2022/02/05 11:46:06;;;;;;;0.77;0.70;;;12.60;1.00;;;;;;5048301;28;20041;-74
2022/02/05 11:48:51;;;;;;;0.30;0.30;;;12.50;1.00;;;;;;5036000;28;20060;-75
2022/02/05 11:51:20;;;;;;;0.40;0.40;;;12.40;1.00;;;;;;5052135;28;20120;-75
2022/02/05 11:54:04;;;;;;;0.30;0.30;;;12.30;1.00;;;;;;5056431;28;20060;-74
2022/02/05 11:59:33;;;;;;;0.43;0.43;;;12.40;1.00;;;;;;5055412;28;20037;-74
2022/02/05 12:02:19;;;;;;;3.70;0.70;;;12.10;1.00;;;;;;5056471;28;20353;-74
2022/02/05 12:04:45;;;;;;;1.60;0.55;;;12.20;1.00;;;;;;5055443;28;20029;-74
2022/02/05 12:07:12;;;;;;;0.70;0.70;;;12.10;1.00;;;;;;5052163;28;20041;-74
2022/02/05 12:09:42;;;;;;;0.50;0.50;;;12.10;1.00;;;;;;5039372;28;20049;-74
2022/02/05 12:12:23;;;;;;;3.42;0.70;;;12.20;1.00;;;;;;5050312;28;20040;-76
2022/02/05 12:15:08;;;;;;;1.33;0.80;;;11.80;1.00;;;;;;5039510;28;20436;-76
2022/02/05 12:20:52;;;;;;;0.60;0.50;;;11.60;1.00;;;;;;5055178;28;20123;-74
2022/02/05 12:25:57;;;;;;;0.55;0.40;;;11.40;1.00;;;;;;5055641;28;20057;-74
2022/02/05 12:28:29;;;;;;;0.65;0.50;;;11.30;1.00;;;;;;5052109;28;20048;-74
2022/02/05 12:30:56;;;;;;;0.65;0.45;;;11.20;1.00;;;;;;5035347;28;20064;-74
2022/02/05 12:33:22;;;;;;;0.60;0.50;;;10.90;1.00;;;;;;5041879;28;20033;-74
2022/02/05 12:35:53;;;;;;;1.08;0.40;;;10.70;1.00;;;;;;5046326;28;20033;-73
2022/02/05 12:38:19;;;;;;;0.77;0.50;;;10.50;1.00;;;;;;5045478;28;20125;-73
2022/02/05 12:40:50;;;;;;;0.70;0.60;;;10.50;1.00;;;;;;5044596;28;20041;-74
2022/02/05 12:43:19;;;;;;;0.50;0.50;;;10.60;1.00;;;;;;5042981;28;20079;-74
2022/02/05 12:45:53;;;;;;;2.47;0.80;;;10.50;1.00;;;;;;5043536;28;20562;-74
2022/02/05 12:48:23;;;;;;;0.70;0.60;;;10.60;1.00;;;;;;5043641;28;20067;-74
2022/02/05 12:50:49;;;;;;;0.45;0.40;;;10.40;1.00;;;;;;5043912;28;20086;-73
2022/02/05 12:53:17;;;;;;;1.27;0.77;;;10.40;1.00;;;;;;5044086;28;20028;-74
2022/02/05 12:55:47;;;;;;;0.57;0.57;;;10.30;1.00;;;;;;5042675;28;20120;-74
2022/02/05 12:58:18;;;;;;;1.73;1.10;;;10.10;1.00;;;;;;5034212;28;20044;-74
2022/02/05 13:00:44;;;;;;;;;;;10.00;1.00;;;;;;5036058;28;20117;-76
2022/02/05 13:03:27;;;;;;;2.15;1.00;;;9.90;1.00;;;;;;5034658;28;19982;-75
2022/02/05 13:05:53;;;;;;;3.15;1.10;;;9.90;1.00;;;;;;5050824;28;20572;-72
2022/02/05 13:08:19;;;;;;;2.75;0.98;;;9.90;1.00;;;;;;5039950;28;20041;-73
2022/02/05 13:10:46;;;;;;;1.65;1.15;;;9.90;1.00;;;;;;5033490;28;20029;-73
2022/02/05 13:13:13;;;;;;;1.58;1.15;;;10.00;1.00;;;;;;5034280;28;20038;-73
2022/02/05 13:15:39;;;;;;;2.28;1.23;;;10.00;1.00;;;;;;5044279;28;20037;-73
2022/02/05 13:18:18;;;;;;;2.97;1.33;;;10.00;1.00;;;;;;5032181;28;20040;-73
2022/02/05 13:36:22;;;;;;;0.80;0.80;;;9.70;1.00;;;;;;5050368;28;20037;-71
2022/02/05 13:41:43;;;;;;;2.10;1.10;;;9.70;1.00;;;;;;5052675;28;20484;-71
2022/02/05 13:44:14;;;;;;;1.50;1.10;;;9.80;1.00;;;;;;5052275;28;20054;-71
2022/02/05 13:46:40;;;;;;;2.33;1.05;;;9.80;1.00;;;;;;5052869;28;20072;-71
2022/02/05 13:49:17;;;;;;;1.85;1.15;;;9.90;1.00;;;;;;5052588;28;20037;-71
2022/02/05 13:51:44;;;;;;;1.40;1.05;;;9.90;1.00;;;;;;5052060;28;20507;-71
2022/02/05 13:54:10;;;;;;;2.13;1.40;;;9.90;1.00;;;;;;5052461;28;20067;-71
2022/02/05 13:56:37;;;;;;;2.40;1.45;;;10.00;1.00;;;;;;5053496;28;20033;-71
2022/02/05 13:59:04;;;;;;;3.00;1.20;;;10.00;1.00;;;;;;5052549;28;20037;-71
2022/02/05 14:01:34;;;;;;;1.52;1.17;;;10.10;1.00;;;;;;5053197;28;20037;-71
2022/02/05 14:04:19;;;;;;;1.83;1.00;;;10.20;1.00;;;;;;5052748;28;20048;-71
2022/02/05 14:06:58;;;;;;;1.90;0.90;;;10.20;1.00;;;;;;5053102;28;20032;-71
2022/02/05 14:09:30;;;;;;;3.42;1.70;;;10.10;1.00;;;;;;5047101;28;20036;-71
2022/02/05 14:11:59;;;;;;;5.88;1.63;;;10.00;1.00;;;;;;5053235;28;20025;-70
2022/02/05 14:14:33;;;;;;;4.38;1.35;;;10.00;1.00;;;;;;5052761;28;20131;-71
2022/02/05 14:17:01;;;;;;;1.88;1.27;;;9.90;1.00;;;;;;5053041;28;20488;-70
2022/02/05 14:19:28;;;;;;;3.28;1.60;;;10.00;1.00;;;;;;5052606;28;20033;-70
2022/02/05 14:21:57;;;;;;;3.30;1.33;;;9.90;1.00;;;;;;5052785;28;20109;-70
2022/02/05 14:24:31;;;;;;;2.00;1.48;;;9.80;1.00;;;;;;5051053;28;20051;-70
2022/02/05 14:27:10;;;;;;;3.05;1.98;;;9.80;1.00;;;;;;5049008;28;20122;-71
2022/02/05 14:33:03;;;;;;;2.22;1.30;;;10.00;1.00;;;;;;5049600;28;20100;-71
2022/02/05 14:40:43;;;;;;;3.22;1.60;;;9.80;1.00;;;;;;5036058;28;20088;-72
2022/02/05 14:43:09;;;;;;;5.10;2.15;;;9.80;1.00;;;;;;5036567;28;20476;-71
2022/02/05 14:45:35;;;;;;;6.28;2.28;;;9.80;1.00;;;;;;5052115;28;20032;-72
2022/02/05 14:48:01;;;;;;;2.35;1.63;;;9.90;1.00;;;;;;5056070;28;20047;-72
2022/02/05 14:50:27;;;;;;;4.53;2.40;;;10.00;1.00;;;;;;5055616;28;20036;-72
2022/02/05 14:52:53;;;;;;;3.22;1.70;;;9.90;1.00;;;;;;5052988;28;20045;-72
2022/02/05 14:55:19;;;;;;;3.88;1.70;;;9.80;1.00;;;;;;5035113;28;20030;-72
2022/02/05 14:57:46;;;;;;;4.35;1.80;;;9.80;1.00;;;;;;5035413;28;20044;-72
2022/02/05 15:00:12;;;;;;;5.10;2.20;;;9.80;1.00;;;;;;5035631;28;20051;-73
2022/02/05 15:02:38;;;;;;;5.70;2.00;;;9.70;1.00;;;;;;5036132;28;20049;-72
2022/02/05 15:05:10;;;;;;;3.15;1.83;;;9.70;1.00;;;;;;5038363;28;20037;-72
2022/02/05 15:07:42;;;;;;;6.28;2.05;;;9.80;1.00;;;;;;5055376;28;20098;-72
2022/02/05 15:10:11;;;;;;;3.88;1.60;;;9.80;1.00;;;;;;5055865;28;20037;-72
2022/02/05 15:12:38;;;;;;;4.60;1.90;;;9.90;1.00;;;;;;5055802;28;20041;-72
2022/02/05 15:15:11;;;;;;;4.78;2.28;;;9.70;1.00;;;;;;5054947;28;20115;-72
2022/02/05 15:17:41;;;;;;;3.95;2.50;;;9.70;1.00;;;;;;5055249;28;20049;-73
2022/02/05 15:20:08;;;;;;;5.72;2.33;;;9.70;1.00;;;;;;5055912;28;20029;-71
2022/02/05 15:22:34;;;;;;;4.13;2.63;;;9.60;1.00;;;;;;5054760;28;20029;-72
2022/02/05 15:25:00;;;;;;;3.58;2.38;;;9.60;1.00;;;;;;5055692;28;20032;-73
2022/02/05 15:27:26;;;;;;;2.90;2.17;;;9.60;1.00;;;;;;5054897;28;20480;-70
2022/02/05 15:29:52;;;;;;;5.57;3.22;;;9.60;1.00;;;;;;5055419;28;20025;-71
2022/02/05 15:32:17;;;;;;;5.32;2.88;;;9.70;1.00;;;;;;5055503;28;20032;-70
2022/02/05 15:34:47;;;;;;;4.90;2.70;;;9.60;1.00;;;;;;5054561;28;20040;-71
2022/02/05 15:37:19;;;;;;;5.60;2.10;;;9.60;1.00;;;;;;5054365;28;20045;-70
2022/02/05 15:39:53;;;;;;;4.43;2.22;;;9.50;1.00;;;;;;5053311;28;20037;-71
2022/02/05 15:45:04;;;;;;;4.82;2.80;;;9.50;1.00;;;;;;5055421;28;20106;-70
2022/02/05 15:47:30;;;;;;;5.57;2.72;;;9.50;1.00;;;;;;5055995;28;20468;-71
2022/02/05 15:49:56;;;;;;;2.80;1.75;;;9.60;1.00;;;;;;5054667;28;20046;-71
2022/02/05 15:52:22;;;;;;;4.82;2.03;;;9.50;1.00;;;;;;5049912;28;20515;-71
2022/02/05 15:54:49;;;;;;;3.38;1.90;;;9.40;1.00;;;;;;5039688;28;20033;-70
2022/02/05 16:02:11;;;;;;;2.45;1.80;;;9.30;1.00;;;;;;5052267;28;20021;-71
2022/02/05 16:04:37;;;;;;;2.53;1.80;;;9.30;1.00;;;;;;5053803;28;20037;-71
2022/02/05 16:07:03;;;;;;;2.72;1.88;;;9.10;1.00;;;;;;5054114;28;20099;-71
2022/02/05 16:09:29;;;;;;;6.32;3.30;;;9.10;1.00;;;;;;5054160;28;20047;-71
2022/02/05 16:11:57;;;;;;;4.07;2.40;;;9.10;1.00;;;;;;5053654;28;20037;-71
2022/02/05 16:14:23;;;;;;;3.33;1.95;;;9.00;1.00;;;;;;5050045;28;20033;-71
2022/02/05 16:16:49;;;;;;;4.05;3.28;;;8.90;1.00;;;;;;5040649;28;20087;-71
2022/02/05 16:19:15;;;;;;;1.92;1.50;;;8.80;1.00;;;;;;5053930;28;20037;-70
2022/02/05 16:21:40;;;;;;;2.70;1.80;;;8.80;1.00;;;;;;5054502;28;20529;-71
2022/02/05 16:24:06;;;;;;;2.47;2.17;;;8.80;1.00;;;;;;5037788;28;20063;-71